createdAt,value
2023-02-12T00:00:21.762Z,22.10
2023-02-12T00:05:23.412Z,21.30
2023-02-12T00:10:25.462Z,23.55
2023-02-12T00:15:27.029Z,20.42
2023-02-12T00:20:28.484Z,21.60
2023-02-12T00:25:30.121Z,20.20
2023-02-12T00:30:31.606Z,17.97
2023-02-12T00:35:34.281Z,23.20
2023-02-12T00:40:35.773Z,23.17
2023-02-12T00:45:37.686Z,20.20
2023-02-12T00:50:39.385Z,20.03
2023-02-12T00:55:41.442Z,19.10
2023-02-12T01:00:43.743Z,26.88
2023-02-12T01:05:45.251Z,20.57
2023-02-12T01:10:55.965Z,26.03
2023-02-12T01:16:27.138Z,18.40
2023-02-12T01:21:31.258Z,19.27
2023-02-12T01:26:33.412Z,23.23
2023-02-12T01:31:38.407Z,21.27
2023-02-12T01:36:40.041Z,17.63
2023-02-12T01:41:44.318Z,17.27
2023-02-12T01:46:58.493Z,19.27
2023-02-12T01:52:28.311Z,17.43
2023-02-12T01:57:32.925Z,21.10
2023-02-12T02:02:34.999Z,21.33
2023-02-12T02:07:36.575Z,22.20
2023-02-12T02:12:39.620Z,19.27
2023-02-12T02:17:52.454Z,15.93
2023-02-12T02:23:06.164Z,18.07
2023-02-12T02:28:45.844Z,14.60
2023-02-12T02:34:07.953Z,19.67
2023-02-12T02:39:28.393Z,18.47
2023-02-12T02:44:37.762Z,17.17
2023-02-12T02:49:45.821Z,16.10
2023-02-12T02:54:56.303Z,17.00
2023-02-12T03:00:12.800Z,19.80
2023-02-12T03:05:27.405Z,21.80
2023-02-12T03:10:34.443Z,18.57
2023-02-12T03:15:41.515Z,21.30
2023-02-12T03:20:48.651Z,23.03
2023-02-12T03:25:57.819Z,20.53
2023-02-12T03:31:11.925Z,21.75
2023-02-12T03:36:26.125Z,22.90
2023-02-12T03:41:34.462Z,17.03
2023-02-12T03:46:51.277Z,19.50
2023-02-12T03:51:52.814Z,18.13
2023-02-12T03:57:00.740Z,19.00
2023-02-12T04:02:02.581Z,24.27
2023-02-12T04:07:04.511Z,18.20
2023-02-12T04:12:17.845Z,22.97
2023-02-12T04:17:26.375Z,18.03
2023-02-12T04:22:54.568Z,17.80
2023-02-12T04:28:11.045Z,19.50
2023-02-12T04:33:18.163Z,19.30
2023-02-12T04:38:25.881Z,20.57
2023-02-12T04:43:34.766Z,17.60
2023-02-12T04:48:53.547Z,17.37
2023-02-12T04:53:55.006Z,14.87
2023-02-12T04:58:56.457Z,12.37
2023-02-12T05:03:57.969Z,18.80
2023-02-12T05:08:59.519Z,16.00
2023-02-12T05:14:01.090Z,19.20
2023-02-12T05:19:02.646Z,20.03
2023-02-12T05:24:04.746Z,21.30
2023-02-12T05:29:06.222Z,17.70
2023-02-12T05:34:10.938Z,19.90
2023-02-12T05:39:12.457Z,17.70
2023-02-12T05:44:14.002Z,18.47
2023-02-12T05:49:15.620Z,18.27
2023-02-12T05:54:17.159Z,20.20
2023-02-12T05:59:22.129Z,19.90
2023-02-12T06:04:27.140Z,18.70
2023-02-12T06:09:28.603Z,20.73
2023-02-12T06:14:31.899Z,15.77
2023-02-12T06:19:34.085Z,20.37
2023-02-12T06:24:35.581Z,20.30
2023-02-12T06:29:37.040Z,19.30
2023-02-12T06:34:38.482Z,21.00
2023-02-12T06:39:39.927Z,20.73
2023-02-12T06:44:41.372Z,17.13
2023-02-12T06:49:42.873Z,19.40
2023-02-12T06:54:44.322Z,19.53
2023-02-12T06:59:45.826Z,16.57
2023-02-12T07:04:47.384Z,20.83
2023-02-12T07:09:49.015Z,16.67
2023-02-12T07:14:50.485Z,23.07
2023-02-12T07:19:51.996Z,20.17
2023-02-12T07:24:53.463Z,19.13
2023-02-12T07:29:54.988Z,22.63
2023-02-12T07:34:56.521Z,20.03
2023-02-12T07:39:59.079Z,18.93
2023-02-12T07:45:00.587Z,15.73
2023-02-12T07:50:02.083Z,16.77
2023-02-12T07:55:03.581Z,18.67
2023-02-12T08:00:05.983Z,18.33
2023-02-12T08:05:13.561Z,11.45
2023-02-12T08:10:15.236Z,12.65
2023-02-12T08:15:19.511Z,16.25
2023-02-12T08:20:20.985Z,16.00
2023-02-12T08:25:22.474Z,19.35
2023-02-12T08:30:23.927Z,13.75
2023-02-12T08:35:25.386Z,17.67
2023-02-12T08:40:26.912Z,15.48
2023-02-12T08:45:28.390Z,14.32
2023-02-12T08:50:29.866Z,23.70
2023-02-12T08:55:31.337Z,20.13
2023-02-12T09:00:32.796Z,20.70
2023-02-12T09:05:38.707Z,22.45
2023-02-12T09:10:44.481Z,14.68
2023-02-12T09:15:46.155Z,19.35
2023-02-12T09:20:47.680Z,17.15
2023-02-12T09:25:49.413Z,17.75
2023-02-12T09:30:50.989Z,16.52
2023-02-12T09:35:52.606Z,24.48
2023-02-12T09:40:54.004Z,23.38
2023-02-12T09:46:05.216Z,20.75
2023-02-12T09:51:09.829Z,20.00
2023-02-12T09:56:14.349Z,27.38
2023-02-12T10:01:19.092Z,25.77
2023-02-12T10:06:29.125Z,21.98
2023-02-12T10:11:44.123Z,23.48
2023-02-12T10:17:07.036Z,25.70
2023-02-12T10:22:23.236Z,19.50
2023-02-12T10:27:39.345Z,21.63
2023-02-12T10:32:44.478Z,17.20
2023-02-12T10:37:52.826Z,13.63
2023-02-12T10:42:54.572Z,13.98
2023-02-12T10:48:09.153Z,16.50
2023-02-12T10:53:32.773Z,19.90
2023-02-12T10:58:34.251Z,15.68
2023-02-12T11:03:35.775Z,17.15
2023-02-12T11:08:37.884Z,19.75
2023-02-12T11:14:05.987Z,16.85
2023-02-12T11:19:19.552Z,18.45
2023-02-12T11:24:32.214Z,18.25
2023-02-12T11:29:33.778Z,18.60
2023-02-12T11:34:36.182Z,16.90
2023-02-12T11:39:40.873Z,16.98
2023-02-12T11:44:52.884Z,17.67
2023-02-12T11:50:05.353Z,16.00
2023-02-12T11:55:20.011Z,12.95
2023-02-12T12:00:38.613Z,14.80
2023-02-12T12:05:48.428Z,14.20
2023-02-12T12:11:00.621Z,13.48
2023-02-12T12:16:13.044Z,13.00
2023-02-12T12:21:30.827Z,12.48
2023-02-12T12:26:34.747Z,12.38
2023-02-12T12:31:42.957Z,14.32
2023-02-12T12:37:06.201Z,12.52
2023-02-12T12:42:44.524Z,15.15
2023-02-12T12:48:11.769Z,11.48
2023-02-12T12:53:31.615Z,12.23
2023-02-12T12:59:03.169Z,12.73
2023-02-12T13:04:16.725Z,13.38
2023-02-12T13:09:32.986Z,12.75
2023-02-12T13:14:47.535Z,10.85
2023-02-12T13:20:12.921Z,12.30
2023-02-12T13:25:40.019Z,11.35
2023-02-12T13:30:51.570Z,12.80
2023-02-12T13:35:58.325Z,12.18
2023-02-12T13:41:04.625Z,11.00
2023-02-12T13:46:21.423Z,14.00
2023-02-12T13:52:12.196Z,11.75
2023-02-12T13:57:17.100Z,12.20
2023-02-12T14:02:18.580Z,11.25
2023-02-12T14:07:21.487Z,12.13
2023-02-12T14:12:26.036Z,14.25
2023-02-12T14:17:30.291Z,11.90
2023-02-12T14:22:31.684Z,15.85
2023-02-12T14:27:36.073Z,13.82
2023-02-12T14:32:52.564Z,14.55
2023-02-12T14:37:56.453Z,13.88
2023-02-12T14:42:57.961Z,13.32
2023-02-12T14:47:59.674Z,12.93
2023-02-12T14:53:13.138Z,11.90
2023-02-12T14:58:22.295Z,11.40
2023-02-12T15:03:30.228Z,8.60
2023-02-12T15:08:47.490Z,8.13
2023-02-12T15:13:55.418Z,8.43
2023-02-12T15:19:03.916Z,9.88
2023-02-12T15:24:07.629Z,10.53
2023-02-12T15:29:21.056Z,9.63
2023-02-12T15:34:27.508Z,10.40
2023-02-12T15:39:41.074Z,8.95
2023-02-12T15:44:42.603Z,10.15
2023-02-12T15:49:44.239Z,9.73
2023-02-12T15:54:47.254Z,11.43
2023-02-12T15:59:54.052Z,11.48
2023-02-12T16:04:57.034Z,14.85
2023-02-12T16:09:58.754Z,10.48
2023-02-12T16:15:00.502Z,9.25
2023-02-12T16:20:17.209Z,8.75
2023-02-12T16:25:31.508Z,11.52
2023-02-12T16:30:43.439Z,9.77
2023-02-12T16:35:44.943Z,9.32
2023-02-12T16:41:18.117Z,11.55
2023-02-12T16:46:20.288Z,9.43
2023-02-12T16:51:30.836Z,9.40
2023-02-12T16:56:36.058Z,9.30
2023-02-12T17:01:37.530Z,10.57
2023-02-12T17:06:39.059Z,11.57
2023-02-12T17:11:40.567Z,9.75
2023-02-12T17:16:42.139Z,9.85
2023-02-12T17:21:46.232Z,10.20
2023-02-12T17:26:48.849Z,7.85
2023-02-12T17:31:51.012Z,11.60
2023-02-12T17:36:52.775Z,11.35
2023-02-12T17:41:54.321Z,10.25
2023-02-12T17:46:55.861Z,9.27
2023-02-12T17:51:57.429Z,9.90
2023-02-12T17:56:59.017Z,13.38
2023-02-12T18:02:00.568Z,10.63
2023-02-12T18:07:03.836Z,11.40
2023-02-12T18:12:06.131Z,7.72
2023-02-12T18:17:07.642Z,8.98
2023-02-12T18:22:09.117Z,9.07
2023-02-12T18:27:11.886Z,10.35
2023-02-12T18:32:13.458Z,11.63
2023-02-12T18:37:15.053Z,9.52
2023-02-12T18:42:16.557Z,10.50
2023-02-12T18:47:19.598Z,8.20
2023-02-12T18:52:24.524Z,10.15
2023-02-12T18:57:26.074Z,13.52
2023-02-12T19:02:27.559Z,11.55
2023-02-12T19:07:29.145Z,14.77
2023-02-12T19:12:30.838Z,18.80
2023-02-12T19:17:33.358Z,14.63
2023-02-12T19:22:35.630Z,12.52
2023-02-12T19:27:37.141Z,14.15
2023-02-12T19:32:38.672Z,13.77
2023-02-12T19:37:40.194Z,13.27
2023-02-12T19:42:41.778Z,11.73
2023-02-12T19:47:43.323Z,14.23
2023-02-12T19:52:44.758Z,12.95
2023-02-12T19:57:46.269Z,15.80
2023-02-12T20:02:47.905Z,20.73
2023-02-12T20:07:49.458Z,16.50
2023-02-12T20:12:50.968Z,14.50
2023-02-12T20:17:52.490Z,12.02
2023-02-12T20:22:54.029Z,15.82
2023-02-12T20:27:55.582Z,17.20
2023-02-12T20:32:57.099Z,20.30
2023-02-12T20:37:58.588Z,15.32
2023-02-12T20:43:00.271Z,11.13
2023-02-12T20:48:01.760Z,16.63
2023-02-12T20:53:03.471Z,18.20
2023-02-12T20:58:05.064Z,15.52
2023-02-12T21:03:06.659Z,15.63
2023-02-12T21:08:08.161Z,18.50
2023-02-12T21:13:09.701Z,16.02
2023-02-12T21:18:11.228Z,15.45
2023-02-12T21:23:12.719Z,14.70
2023-02-12T21:28:14.221Z,12.30
2023-02-12T21:33:15.746Z,15.75
2023-02-12T21:38:17.191Z,12.60
2023-02-12T21:43:18.662Z,11.85
2023-02-12T21:48:20.101Z,15.70
2023-02-12T21:53:21.611Z,15.15
2023-02-12T21:58:23.417Z,19.75
2023-02-12T22:03:24.908Z,18.08
2023-02-12T22:08:26.377Z,18.00
2023-02-12T22:13:28.997Z,15.73
2023-02-12T22:18:30.475Z,16.38
2023-02-12T22:23:32.881Z,12.43
2023-02-12T22:28:39.137Z,17.75
2023-02-12T22:33:40.712Z,12.85
2023-02-12T22:38:42.209Z,14.10
2023-02-12T22:43:43.763Z,15.15
2023-02-12T22:48:46.198Z,11.52
2023-02-12T22:53:47.792Z,15.15
2023-02-12T22:58:54.702Z,16.33
2023-02-12T23:03:56.844Z,12.85
2023-02-12T23:09:01.636Z,15.52
2023-02-12T23:14:03.161Z,15.55
2023-02-12T23:19:04.672Z,15.52
2023-02-12T23:24:06.619Z,15.82
2023-02-12T23:29:08.416Z,14.55
2023-02-12T23:34:09.925Z,13.27
2023-02-12T23:39:12.534Z,14.32
2023-02-12T23:44:14.001Z,11.48
2023-02-12T23:49:15.464Z,16.27
2023-02-12T23:54:16.967Z,16.00
2023-02-12T23:59:18.569Z,16.23
